Time;durP1;ratioP1;P1;durP2;ratioP2;P2;SDS_P1;SDS_P2;PMS_P1;PMS_P2;Temp;Humidity;BMP_temperature;BMP_pressure;BME280_temperature;BME280_humidity;BME280_pressure;Samples;Min_cycle;Max_cycle;Signal;HPM_P1;HPM_P2
2023/01/18 06:55:18;;;;;;;8.30;6.13;;;;;;;;;;10505740;28;20491;-81
2023/01/18 07:00:19;;;;;;;7.82;5.82;;;;;;;;;;10504611;28;20071;-81
2023/01/18 07:05:20;;;;;;;9.07;6.28;;;;;;;;;;10504322;28;20028;-82
2023/01/18 07:10:21;;;;;;;10.40;6.70;;;;;;;;;;10504138;28;20506;-82
2023/01/18 07:15:22;;;;;;;8.43;6.90;;;;;;;;;;10504197;28;20048;-82
2023/01/18 07:20:23;;;;;;;8.50;6.53;;;;;;;;;;10503836;28;20096;-82
2023/01/18 07:25:26;;;;;;;9.30;6.97;;;;;;;;;;10502128;28;20132;-82
2023/01/18 07:30:27;;;;;;;9.05;6.60;;;;;;;;;;10502832;28;20032;-82
2023/01/18 07:35:28;;;;;;;9.15;6.80;;;;;;;;;;10504199;28;20025;-82
2023/01/18 07:40:29;;;;;;;13.27;9.70;;;;;;;;;;10502324;28;20032;-80
2023/01/18 07:45:30;;;;;;;11.88;8.77;;;;;;;;;;10507257;28;20089;-81
2023/01/18 07:50:34;;;;;;;9.23;6.28;;;;;;;;;;10523408;28;20041;-82
2023/01/18 07:55:37;;;;;;;9.30;7.00;;;;;;;;;;10501504;28;20032;-81
2023/01/18 08:00:38;;;;;;;9.13;6.57;;;;;;;;;;10499878;28;20027;-81
2023/01/18 08:05:41;;;;;;;8.93;6.30;;;;;;;;;;10477230;28;20058;-80
2023/01/18 08:10:43;;;;;;;13.70;8.80;;;;;;;;;;10471156;28;20036;-81
2023/01/18 08:15:43;;;;;;;;;;;;;;;;;;10470725;28;20025;-84
2023/01/18 08:20:45;;;;;;;12.65;9.07;;;;;;;;;;10471922;28;19924;-83
2023/01/18 08:25:47;;;;;;;11.57;9.52;;;;;;;;;;10478397;28;20032;-84
2023/01/18 08:30:48;;;;;;;12.50;8.80;;;;;;;;;;10481463;28;20029;-84
2023/01/18 08:35:49;;;;;;;;;;;;;;;;;;10472238;28;20024;-83
2023/01/18 08:40:50;;;;;;;11.73;9.02;;;;;;;;;;10473132;28;19912;-83
2023/01/18 08:45:51;;;;;;;12.10;9.57;;;;;;;;;;10477921;28;20029;-84
2023/01/18 08:50:52;;;;;;;14.45;10.90;;;;;;;;;;10476211;28;20033;-83
2023/01/18 08:55:53;;;;;;;15.05;10.90;;;;;;;;;;10474938;28;20101;-83
2023/01/18 09:00:54;;;;;;;13.45;9.55;;;;;;;;;;10474631;28;20106;-83
2023/01/18 09:05:55;;;;;;;11.32;8.57;;;;;;;;;;10473466;28;20036;-83
2023/01/18 09:11:01;;;;;;;13.45;9.63;;;;;;;;;;10476754;28;20043;-83
2023/01/18 09:16:03;;;;;;;12.52;8.82;;;;;;;;;;10475617;28;20049;-83
2023/01/18 09:21:05;;;;;;;9.50;7.35;;;;;;;;;;10476033;28;20029;-83
2023/01/18 09:26:08;;;;;;;10.00;7.18;;;;;;;;;;10476015;28;20059;-83
2023/01/18 09:31:09;;;;;;;12.00;9.25;;;;;;;;;;10475981;28;20028;-82
2023/01/18 09:36:11;;;;;;;10.23;6.95;;;;;;;;;;10477868;28;20029;-83
2023/01/18 09:41:33;;;;;;;8.32;6.38;;;;;;;;;;10483843;28;20040;-83
2023/01/18 09:46:37;;;;;;;10.70;8.05;;;;;;;;;;10481218;28;20028;-83
2023/01/18 09:51:45;;;;;;;11.30;7.38;;;;;;;;;;10475323;28;20040;-83
2023/01/18 09:56:49;;;;;;;11.15;8.45;;;;;;;;;;10475813;28;20051;-83
2023/01/18 10:01:50;;;;;;;10.32;7.25;;;;;;;;;;10477895;28;20036;-84
2023/01/18 10:07:06;;;;;;;10.85;8.27;;;;;;;;;;10486511;28;20033;-83
2023/01/18 10:12:26;;;;;;;12.00;7.75;;;;;;;;;;10474152;28;20112;-81
2023/01/18 10:17:34;;;;;;;9.88;6.93;;;;;;;;;;10474267;28;20025;-82
2023/01/18 10:22:41;;;;;;;11.48;7.68;;;;;;;;;;10478822;28;20043;-83
2023/01/18 10:27:45;;;;;;;8.35;6.43;;;;;;;;;;10478969;28;20028;-82
2023/01/18 10:32:57;;;;;;;10.07;7.15;;;;;;;;;;10478467;28;20096;-83
2023/01/18 10:38:00;;;;;;;11.10;7.60;;;;;;;;;;10477977;28;20092;-81
2023/01/18 10:43:09;;;;;;;13.38;8.60;;;;;;;;;;10478119;28;20044;-83
2023/01/18 10:48:23;;;;;;;9.93;7.25;;;;;;;;;;10473994;28;20044;-83
2023/01/18 10:53:35;;;;;;;13.20;11.38;;;;;;;;;;10474958;28;20036;-84
2023/01/18 10:58:44;;;;;;;10.48;8.02;;;;;;;;;;10476467;28;20025;-83
2023/01/18 11:04:04;;;;;;;12.05;7.90;;;;;;;;;;10480150;28;20025;-84
2023/01/18 11:09:27;;;;;;;9.10;6.80;;;;;;;;;;10481565;28;20437;-84
2023/01/18 11:14:29;;;;;;;9.73;6.30;;;;;;;;;;10476326;28;20443;-84
2023/01/18 11:19:30;;;;;;;12.10;9.32;;;;;;;;;;10476517;28;20045;-82
2023/01/18 11:24:33;;;;;;;7.97;6.18;;;;;;;;;;10473403;28;20028;-83
2023/01/18 11:29:35;;;;;;;12.05;8.75;;;;;;;;;;10475908;28;20059;-83
2023/01/18 11:34:42;;;;;;;8.05;6.00;;;;;;;;;;10493548;28;20503;-82
2023/01/18 11:39:43;;;;;;;8.77;7.20;;;;;;;;;;10477729;28;20413;-82
2023/01/18 11:44:47;;;;;;;8.73;6.47;;;;;;;;;;10483066;28;20021;-83
2023/01/18 11:49:51;;;;;;;10.93;7.85;;;;;;;;;;10484025;28;20029;-83
2023/01/18 11:54:55;;;;;;;8.27;6.60;;;;;;;;;;10481679;28;20045;-83
2023/01/18 11:59:56;;;;;;;9.95;7.03;;;;;;;;;;10485370;28;20021;-84
2023/01/18 12:04:57;;;;;;;;;;;;;;;;;;10481705;28;20096;-83
2023/01/18 12:10:00;;;;;;;8.57;6.15;;;;;;;;;;10478570;28;19976;-82
2023/01/18 12:15:12;;;;;;;8.77;6.38;;;;;;;;;;10479881;28;20352;-83
2023/01/18 12:20:23;;;;;;;8.90;6.55;;;;;;;;;;10479763;28;20044;-83
2023/01/18 12:25:42;;;;;;;8.97;6.43;;;;;;;;;;10482745;28;20040;-83
2023/01/18 12:30:53;;;;;;;9.93;6.25;;;;;;;;;;10486215;28;20032;-83
2023/01/18 12:36:00;;;;;;;9.15;7.25;;;;;;;;;;10482589;28;20029;-83
2023/01/18 12:41:17;;;;;;;10.95;7.80;;;;;;;;;;10477936;28;20025;-83
2023/01/18 12:46:33;;;;;;;7.60;4.53;;;;;;;;;;10474875;28;20033;-83
2023/01/18 12:51:37;;;;;;;9.50;6.70;;;;;;;;;;10473877;28;20056;-84
2023/01/18 12:56:39;;;;;;;9.02;7.05;;;;;;;;;;10475595;28;20021;-85
2023/01/18 13:01:42;;;;;;;9.23;7.15;;;;;;;;;;10475444;28;20033;-85
2023/01/18 13:06:43;;;;;;;9.65;6.18;;;;;;;;;;10474557;28;20025;-84
2023/01/18 13:11:45;;;;;;;7.18;4.95;;;;;;;;;;10480338;28;20048;-84
2023/01/18 13:17:07;;;;;;;8.50;5.05;;;;;;;;;;10480281;28;20463;-86
2023/01/18 13:22:22;;;;;;;7.88;5.35;;;;;;;;;;10482872;28;20051;-83
2023/01/18 13:27:26;;;;;;;9.10;6.70;;;;;;;;;;10492074;28;20029;-85
2023/01/18 13:32:32;;;;;;;9.18;4.68;;;;;;;;;;10469447;28;20089;-84
2023/01/18 13:37:41;;;;;;;9.80;6.28;;;;;;;;;;10470681;28;20108;-85
2023/01/18 13:42:44;;;;;;;7.03;4.57;;;;;;;;;;10467651;28;20127;-84
2023/01/18 13:47:47;;;;;;;7.20;5.63;;;;;;;;;;10475980;28;20039;-85
2023/01/18 13:53:08;;;;;;;8.80;5.57;;;;;;;;;;10471444;28;20029;-83
2023/01/18 13:58:27;;;;;;;9.60;7.13;;;;;;;;;;10470193;28;20485;-85
2023/01/18 14:03:29;;;;;;;7.68;5.10;;;;;;;;;;10471093;28;20029;-84
2023/01/18 14:08:33;;;;;;;12.80;8.52;;;;;;;;;;10473849;28;20060;-84
2023/01/18 14:13:59;;;;;;;10.02;7.40;;;;;;;;;;10473307;28;20029;-83
2023/01/18 14:19:11;;;;;;;8.93;5.28;;;;;;;;;;10475768;28;20074;-83
2023/01/18 14:24:16;;;;;;;7.95;4.32;;;;;;;;;;10473019;28;20566;-83
2023/01/18 14:29:17;;;;;;;9.07;5.68;;;;;;;;;;10474342;28;20033;-84
2023/01/18 14:34:37;;;;;;;7.43;4.63;;;;;;;;;;10472831;28;20025;-82
2023/01/18 14:39:38;;;;;;;6.68;4.60;;;;;;;;;;10470032;28;20482;-83
2023/01/18 14:44:49;;;;;;;9.30;5.78;;;;;;;;;;10468981;28;20111;-83
2023/01/18 14:49:50;;;;;;;8.87;5.50;;;;;;;;;;10473186;28;20037;-83
2023/01/18 14:54:52;;;;;;;12.88;8.15;;;;;;;;;;10470319;28;20399;-82
2023/01/18 15:00:03;;;;;;;19.13;8.15;;;;;;;;;;10469448;28;20049;-82
2023/01/18 15:05:04;;;;;;;;;;;;;;;;;;10471701;28;20041;-83
2023/01/18 15:10:07;;;;;;;8.95;5.07;;;;;;;;;;10469373;28;20423;-82
2023/01/18 15:15:13;;;;;;;5.65;3.75;;;;;;;;;;10473861;28;20029;-82
2023/01/18 15:20:14;;;;;;;6.90;4.38;;;;;;;;;;10498918;28;20040;-82
2023/01/18 15:25:15;;;;;;;;;;;;;;;;;;10477470;28;20033;-83
2023/01/18 15:30:17;;;;;;;5.78;4.20;;;;;;;;;;10477805;28;20350;-83
2023/01/18 15:35:18;;;;;;;8.75;5.10;;;;;;;;;;10475280;28;20506;-83
2023/01/18 15:40:19;;;;;;;;;;;;;;;;;;10475104;28;20039;-85
2023/01/18 15:45:34;;;;;;;6.53;3.35;;;;;;;;;;10500128;28;19915;-80
2023/01/18 15:50:46;;;;;;;6.20;3.97;;;;;;;;;;10499308;28;20111;-81
2023/01/18 15:55:49;;;;;;;5.75;3.20;;;;;;;;;;10503551;28;20021;-83
2023/01/18 16:01:10;;;;;;;7.40;3.72;;;;;;;;;;10504980;28;20048;-83
2023/01/18 16:06:15;;;;;;;6.10;3.90;;;;;;;;;;10483451;28;20456;-84
2023/01/18 16:11:50;;;;;;;6.75;4.45;;;;;;;;;;10495574;28;20043;-83
2023/01/18 16:16:52;;;;;;;6.82;3.30;;;;;;;;;;10490831;28;20032;-83
2023/01/18 16:22:26;;;;;;;7.65;5.75;;;;;;;;;;10502255;28;20033;-83
2023/01/18 16:27:28;;;;;;;8.93;6.10;;;;;;;;;;10490652;28;20045;-83
2023/01/18 16:32:31;;;;;;;6.05;3.88;;;;;;;;;;10472424;28;20206;-84
2023/01/18 16:37:32;;;;;;;5.75;3.50;;;;;;;;;;10472740;28;20029;-84
2023/01/18 16:42:35;;;;;;;4.80;3.60;;;;;;;;;;10473064;28;20132;-83
2023/01/18 16:47:36;;;;;;;6.47;4.03;;;;;;;;;;10488661;28;20092;-84
2023/01/18 16:52:37;;;;;;;7.63;5.10;;;;;;;;;;10477951;28;20036;-83
2023/01/18 16:57:38;;;;;;;6.53;4.55;;;;;;;;;;10475607;28;20065;-84
2023/01/18 17:02:39;;;;;;;7.13;4.63;;;;;;;;;;10481408;28;20029;-84
2023/01/18 17:07:40;;;;;;;6.85;4.07;;;;;;;;;;10483136;28;20028;-83
2023/01/18 17:12:41;;;;;;;5.90;3.80;;;;;;;;;;10500806;28;20041;-82
2023/01/18 17:17:42;;;;;;;4.95;3.20;;;;;;;;;;10485103;28;20509;-82
2023/01/18 17:22:44;;;;;;;5.78;3.88;;;;;;;;;;10486450;28;20028;-82
2023/01/18 17:27:45;;;;;;;5.10;2.78;;;;;;;;;;10479116;28;20404;-80
2023/01/18 17:32:47;;;;;;;8.15;5.28;;;;;;;;;;10480899;28;20061;-82
2023/01/18 17:37:49;;;;;;;7.00;4.07;;;;;;;;;;10479423;28;20345;-84
2023/01/18 17:42:50;;;;;;;6.13;4.60;;;;;;;;;;10474308;28;20127;-84
2023/01/18 17:47:52;;;;;;;8.00;5.13;;;;;;;;;;10472525;28;20051;-85
2023/01/18 17:52:53;;;;;;;5.15;2.90;;;;;;;;;;10472731;28;20033;-84
2023/01/18 17:57:55;;;;;;;4.97;3.20;;;;;;;;;;10471053;28;20025;-84
2023/01/18 18:02:56;;;;;;;5.15;3.15;;;;;;;;;;10472254;28;20035;-85
2023/01/18 18:07:57;;;;;;;6.72;3.65;;;;;;;;;;10471659;28;20025;-84
2023/01/18 18:12:58;;;;;;;6.22;3.03;;;;;;;;;;10468257;28;20033;-84
2023/01/18 18:17:59;;;;;;;7.18;4.18;;;;;;;;;;10468039;28;20024;-84
2023/01/18 18:23:00;;;;;;;6.28;3.50;;;;;;;;;;10472090;28;20068;-85
2023/01/18 18:28:01;;;;;;;5.90;3.80;;;;;;;;;;10473345;28;20033;-85
2023/01/18 18:33:02;;;;;;;6.10;2.85;;;;;;;;;;10470097;28;20075;-85
2023/01/18 18:38:03;;;;;;;5.43;3.05;;;;;;;;;;10473680;28;20025;-85
2023/01/18 18:43:04;;;;;;;3.85;2.72;;;;;;;;;;10469299;28;20025;-85
2023/01/18 18:48:05;;;;;;;5.20;3.50;;;;;;;;;;10470336;28;20118;-85
2023/01/18 18:53:06;;;;;;;6.65;3.83;;;;;;;;;;10469559;28;20061;-84
2023/01/18 18:58:07;;;;;;;;;;;;;;;;;;10474616;28;20025;-83
2023/01/18 19:03:08;;;;;;;5.47;3.55;;;;;;;;;;10481325;28;19893;-83
2023/01/18 19:08:09;;;;;;;5.13;3.25;;;;;;;;;;10486063;28;20033;-86
2023/01/18 19:13:10;;;;;;;5.53;3.13;;;;;;;;;;10466775;28;20063;-84
2023/01/18 19:18:12;;;;;;;5.53;3.10;;;;;;;;;;10468503;28;20155;-83
2023/01/18 19:23:13;;;;;;;4.80;2.63;;;;;;;;;;10466398;28;20064;-84
2023/01/18 19:28:14;;;;;;;5.25;3.20;;;;;;;;;;10467344;28;20021;-84
2023/01/18 19:33:15;;;;;;;6.45;4.43;;;;;;;;;;10465761;28;20083;-83
2023/01/18 19:38:16;;;;;;;6.43;4.45;;;;;;;;;;10465725;28;20025;-83
2023/01/18 19:43:18;;;;;;;6.45;4.53;;;;;;;;;;10469562;28;20025;-84
2023/01/18 19:48:19;;;;;;;6.03;4.10;;;;;;;;;;10473725;28;20017;-83
2023/01/18 19:53:21;;;;;;;5.40;3.58;;;;;;;;;;10486900;28;20037;-82
2023/01/18 19:58:22;;;;;;;7.85;5.10;;;;;;;;;;10469322;28;20092;-84
